createdAt,value
2019-03-12T00:00:38.554Z,83.98
2019-03-12T00:03:07.343Z,84.17
2019-03-12T00:05:36.110Z,84.03
2019-03-12T00:08:05.323Z,83.28
2019-03-12T00:10:34.119Z,84.10
2019-03-12T00:13:02.897Z,83.66
2019-03-12T00:15:31.737Z,83.39
2019-03-12T00:18:00.509Z,83.30
2019-03-12T00:20:29.443Z,83.69
2019-03-12T00:22:58.179Z,83.80
2019-03-12T00:25:26.966Z,83.78
2019-03-12T00:27:55.746Z,83.94
2019-03-12T00:30:24.566Z,83.73
2019-03-12T00:32:55.722Z,84.82
2019-03-12T00:35:22.200Z,84.32
2019-03-12T00:37:51.124Z,84.32
2019-03-12T00:40:19.942Z,84.49
2019-03-12T00:42:48.778Z,85.00
2019-03-12T00:45:17.534Z,85.01
2019-03-12T00:47:47.686Z,84.94
2019-03-12T00:50:16.537Z,85.32
2019-03-12T00:52:45.340Z,85.36
2019-03-12T00:55:14.126Z,84.83
2019-03-12T00:57:43.065Z,85.77
2019-03-12T01:00:13.464Z,85.57
2019-03-12T01:02:42.239Z,85.03
2019-03-12T01:05:11.068Z,85.42
2019-03-12T01:07:39.835Z,86.04
2019-03-12T01:10:10.036Z,85.53
2019-03-12T01:12:38.823Z,85.88
2019-03-12T01:15:08.151Z,86.68
2019-03-12T01:17:36.952Z,85.89
2019-03-12T01:20:06.786Z,86.22
2019-03-12T01:22:35.569Z,86.32
2019-03-12T01:25:04.438Z,86.45
2019-03-12T01:27:33.214Z,86.63
2019-03-12T01:30:02.000Z,85.51
2019-03-12T01:32:31.893Z,86.05
2019-03-12T01:35:00.687Z,85.83
2019-03-12T01:37:29.463Z,86.28
2019-03-12T01:39:58.299Z,86.31
2019-03-12T01:42:27.091Z,86.38
2019-03-12T01:44:55.863Z,86.97
2019-03-12T01:47:25.553Z,86.59
2019-03-12T01:49:56.215Z,86.75
2019-03-12T01:52:24.986Z,86.65
2019-03-12T01:54:53.763Z,86.40
2019-03-12T01:57:22.595Z,86.87
2019-03-12T01:59:51.384Z,87.09
2019-03-12T02:02:20.302Z,86.93
2019-03-12T02:04:49.089Z,86.48
2019-03-12T02:07:17.919Z,86.08
2019-03-12T02:09:46.786Z,86.43
2019-03-12T02:12:15.627Z,86.59
2019-03-12T02:14:44.511Z,86.55
2019-03-12T02:17:13.395Z,86.60
2019-03-12T02:19:42.226Z,86.33
2019-03-12T02:22:12.837Z,86.89
2019-03-12T02:24:52.002Z,86.00
2019-03-12T02:27:10.695Z,86.23
2019-03-12T02:29:39.514Z,86.93
2019-03-12T02:32:08.304Z,86.90
2019-03-12T02:34:37.862Z,86.57
2019-03-12T02:37:07.597Z,86.14
2019-03-12T02:39:37.007Z,86.22
2019-03-12T02:42:05.959Z,85.83
2019-03-12T02:44:34.769Z,86.06
2019-03-12T02:47:03.562Z,85.95
2019-03-12T02:49:33.276Z,86.16
2019-03-12T02:52:02.170Z,85.75
2019-03-12T02:54:30.954Z,86.20
2019-03-12T02:56:59.784Z,85.98
2019-03-12T02:59:28.563Z,85.98
2019-03-12T03:01:57.348Z,86.10
2019-03-12T03:04:26.252Z,85.89
2019-03-12T03:07:03.247Z,85.50
2019-03-12T03:09:32.060Z,85.42
2019-03-12T03:12:00.939Z,85.89
2019-03-12T03:14:35.557Z,84.99
2019-03-12T03:17:05.860Z,85.32
2019-03-12T03:19:34.640Z,85.02
2019-03-12T03:22:03.432Z,85.42
2019-03-12T03:24:32.204Z,85.25
2019-03-12T03:27:01.002Z,84.82
2019-03-12T03:29:29.926Z,85.36
2019-03-12T03:31:58.773Z,85.37
2019-03-12T03:34:30.729Z,84.99
2019-03-12T03:36:59.536Z,85.66
2019-03-12T03:39:28.325Z,85.95
2019-03-12T03:41:57.126Z,85.93
2019-03-12T03:44:25.939Z,85.72
2019-03-12T03:46:54.812Z,85.53
2019-03-12T03:49:23.691Z,85.38
2019-03-12T03:51:52.394Z,85.49
2019-03-12T03:54:21.257Z,85.50
2019-03-12T03:56:50.047Z,85.72
2019-03-12T03:59:18.837Z,85.51
2019-03-12T04:01:47.637Z,85.64
2019-03-12T04:04:16.434Z,85.93
2019-03-12T04:06:45.882Z,86.40
2019-03-12T04:09:14.673Z,85.96
2019-03-12T04:11:43.556Z,85.73
2019-03-12T04:14:12.346Z,85.82
2019-03-12T04:16:41.138Z,86.22
2019-03-12T04:19:09.975Z,86.15
2019-03-12T04:21:38.747Z,85.63
2019-03-12T04:24:07.611Z,85.86
2019-03-12T04:26:37.730Z,85.37
2019-03-12T04:29:08.315Z,85.72
2019-03-12T04:31:42.854Z,85.32
2019-03-12T04:34:19.027Z,85.89
2019-03-12T04:36:50.408Z,85.82
2019-03-12T04:39:19.672Z,85.53
2019-03-12T04:41:48.485Z,85.60
2019-03-12T04:44:17.396Z,86.39
2019-03-12T04:46:46.192Z,85.99
2019-03-12T04:49:17.399Z,85.82
2019-03-12T04:52:04.383Z,85.99
2019-03-12T04:54:37.859Z,86.30
2019-03-12T04:57:06.637Z,86.09
2019-03-12T04:59:36.430Z,86.19
2019-03-12T05:02:05.239Z,86.20
2019-03-12T05:04:34.039Z,86.27
2019-03-12T05:07:02.849Z,85.85
2019-03-12T05:09:31.651Z,86.30
2019-03-12T05:12:00.488Z,86.52
2019-03-12T05:14:32.363Z,86.84
2019-03-12T05:17:06.341Z,86.28
2019-03-12T05:19:35.144Z,86.50
2019-03-12T05:22:03.990Z,86.31
2019-03-12T05:24:32.756Z,86.15
2019-03-12T05:27:01.548Z,85.96
2019-03-12T05:29:30.375Z,86.29
2019-03-12T05:31:59.238Z,86.82
2019-03-12T05:34:28.063Z,86.47
2019-03-12T05:36:57.445Z,86.98
2019-03-12T05:39:26.226Z,86.84
2019-03-12T05:41:55.022Z,86.77
2019-03-12T05:44:30.393Z,86.59
2019-03-12T05:46:59.291Z,86.72
2019-03-12T05:49:28.090Z,86.20
2019-03-12T05:51:56.869Z,86.43
2019-03-12T05:54:25.650Z,87.04
2019-03-12T05:56:54.546Z,86.87
2019-03-12T05:59:23.306Z,86.30
2019-03-12T06:01:52.151Z,86.55
2019-03-12T06:04:20.996Z,86.23
2019-03-12T06:06:49.806Z,86.40
2019-03-12T06:09:29.659Z,86.80
2019-03-12T06:11:47.391Z,86.83
2019-03-12T06:14:16.173Z,86.30
2019-03-12T06:16:45.064Z,86.23
2019-03-12T06:19:13.828Z,85.93
2019-03-12T06:21:42.667Z,86.34
2019-03-12T06:24:11.431Z,86.05
2019-03-12T06:26:40.248Z,86.45
2019-03-12T06:29:09.104Z,86.02
2019-03-12T06:32:00.338Z,86.47
2019-03-12T06:34:37.439Z,86.83
2019-03-12T06:37:16.404Z,86.71
2019-03-12T06:39:51.692Z,86.57
2019-03-12T06:42:25.803Z,86.52
2019-03-12T06:44:59.955Z,86.84
2019-03-12T06:47:34.786Z,87.09
2019-03-12T06:50:08.666Z,87.28
2019-03-12T06:52:44.581Z,87.15
2019-03-12T06:55:24.806Z,87.40
2019-03-12T06:58:12.078Z,86.84
2019-03-12T07:00:46.012Z,87.56
2019-03-12T07:03:20.160Z,87.43
2019-03-12T07:05:56.117Z,86.92
2019-03-12T07:08:29.093Z,87.31
2019-03-12T07:12:02.875Z,86.84
2019-03-12T07:14:41.988Z,87.24
2019-03-12T07:18:13.975Z,87.18
2019-03-12T07:22:52.102Z,86.46
2019-03-12T07:25:32.103Z,86.31
2019-03-12T07:28:09.007Z,86.57
2019-03-12T07:31:44.103Z,86.82
2019-03-12T07:34:20.086Z,85.93
2019-03-12T07:36:54.025Z,85.55
2019-03-12T07:39:28.291Z,85.87
2019-03-12T07:42:02.136Z,85.42
2019-03-12T07:44:35.089Z,85.78
2019-03-12T07:47:11.156Z,84.98
2019-03-12T07:49:45.943Z,84.95
2019-03-12T07:52:21.767Z,83.86
2019-03-12T07:55:26.125Z,83.41
2019-03-12T07:59:02.592Z,83.08
2019-03-12T08:01:39.532Z,82.49
2019-03-12T08:04:13.579Z,82.05
2019-03-12T08:06:56.622Z,81.33
2019-03-12T08:11:35.593Z,81.20
2019-03-12T08:14:10.360Z,80.76
2019-03-12T08:17:16.818Z,80.27
2019-03-12T08:19:49.770Z,79.49
2019-03-12T08:22:24.689Z,78.63
2019-03-12T08:25:28.907Z,78.68
2019-03-12T08:28:07.925Z,77.52
2019-03-12T08:31:44.791Z,77.05
2019-03-12T08:35:16.634Z,77.09
2019-03-12T08:37:54.849Z,75.24
2019-03-12T08:40:28.872Z,75.40
2019-03-12T08:43:01.822Z,74.71
2019-03-12T08:45:36.629Z,74.75
2019-03-12T08:48:12.637Z,74.19
2019-03-12T08:50:51.773Z,74.35
2019-03-12T08:53:25.262Z,74.77
2019-03-12T08:56:03.063Z,74.15
2019-03-12T08:59:41.923Z,73.45
2019-03-12T09:02:16.133Z,73.36
2019-03-12T09:06:53.006Z,73.20
2019-03-12T09:09:27.654Z,72.51
2019-03-12T09:12:18.877Z,71.66
2019-03-12T09:14:52.775Z,71.68
2019-03-12T09:17:28.720Z,70.99
2019-03-12T09:20:17.902Z,71.03
2019-03-12T09:22:53.951Z,69.59
2019-03-12T09:25:33.990Z,69.40
2019-03-12T09:28:10.111Z,69.03
2019-03-12T09:30:44.268Z,67.19
2019-03-12T09:33:19.079Z,67.84
2019-03-12T09:35:52.035Z,66.92
2019-03-12T09:38:27.062Z,67.73
2019-03-12T09:41:01.925Z,67.39
2019-03-12T09:45:38.780Z,67.43
2019-03-12T09:48:17.640Z,66.68
2019-03-12T09:50:50.605Z,65.78
2019-03-12T09:53:24.555Z,65.66
2019-03-12T09:55:57.520Z,65.97
2019-03-12T09:58:34.351Z,64.23
2019-03-12T10:01:40.955Z,63.87
2019-03-12T10:04:14.106Z,63.19
2019-03-12T10:06:53.060Z,62.50
2019-03-12T10:10:25.974Z,62.42
2019-03-12T10:13:00.154Z,62.55
2019-03-12T10:15:33.101Z,61.78
2019-03-12T10:18:10.020Z,62.35
2019-03-12T10:20:45.977Z,61.33
2019-03-12T10:23:23.957Z,61.13
2019-03-12T10:26:57.993Z,61.15
2019-03-12T10:29:35.051Z,61.31
2019-03-12T10:32:10.232Z,60.64
2019-03-12T10:35:16.070Z,59.39
2019-03-12T10:37:49.931Z,58.83
2019-03-12T10:40:27.723Z,58.89
2019-03-12T10:43:06.047Z,59.70
2019-03-12T10:46:41.841Z,59.58
2019-03-12T10:49:10.665Z,58.08
2019-03-12T10:51:39.452Z,58.46
2019-03-12T10:54:08.251Z,58.82
2019-03-12T10:56:37.084Z,58.86
2019-03-12T10:59:05.881Z,58.70
2019-03-12T11:01:35.450Z,57.53
2019-03-12T11:04:04.936Z,58.21
2019-03-12T11:06:34.655Z,58.63
2019-03-12T11:09:06.015Z,58.05
2019-03-12T11:11:34.800Z,58.15
2019-03-12T11:14:03.600Z,57.39
2019-03-12T11:16:32.408Z,56.96
2019-03-12T11:19:01.193Z,55.96
2019-03-12T11:21:30.071Z,56.74
2019-03-12T11:23:59.924Z,56.54
2019-03-12T11:26:29.712Z,53.27
2019-03-12T11:28:58.551Z,55.70
2019-03-12T11:31:27.327Z,55.90
2019-03-12T11:33:56.108Z,55.49
2019-03-12T11:36:24.931Z,55.95
2019-03-12T11:38:53.938Z,54.92
2019-03-12T11:41:22.662Z,54.93
2019-03-12T11:43:51.453Z,55.16
2019-03-12T11:46:21.152Z,54.63
2019-03-12T11:48:49.905Z,54.32
2019-03-12T11:51:18.862Z,52.97
2019-03-12T11:53:47.923Z,54.43
2019-03-12T11:56:16.502Z,54.56
2019-03-12T11:58:45.378Z,54.56
2019-03-12T12:01:14.312Z,54.45
2019-03-12T12:03:43.115Z,54.38
2019-03-12T12:06:11.940Z,54.85
2019-03-12T12:08:40.759Z,54.48
2019-03-12T12:11:09.587Z,53.90
2019-03-12T12:13:38.385Z,54.17
2019-03-12T12:16:07.213Z,53.11
2019-03-12T12:18:35.983Z,53.94
2019-03-12T12:21:05.255Z,53.79
2019-03-12T12:23:34.041Z,53.43
2019-03-12T12:26:02.829Z,53.20
2019-03-12T12:28:31.668Z,54.38
2019-03-12T12:31:01.487Z,54.09
2019-03-12T12:33:31.024Z,54.80
2019-03-12T12:35:59.867Z,54.35
2019-03-12T12:38:28.655Z,54.09
2019-03-12T12:40:58.184Z,55.02
2019-03-12T12:43:26.971Z,54.17
2019-03-12T12:45:55.758Z,53.31
2019-03-12T12:48:24.567Z,53.23
2019-03-12T12:51:02.977Z,53.81
2019-03-12T12:53:22.151Z,52.98
2019-03-12T12:55:50.927Z,52.36
2019-03-12T12:58:19.723Z,52.21
2019-03-12T13:00:48.546Z,51.33
2019-03-12T13:03:17.318Z,51.26
2019-03-12T13:05:46.118Z,51.10
2019-03-12T13:08:14.951Z,50.85
2019-03-12T13:10:43.797Z,49.41
2019-03-12T13:13:12.578Z,49.57
2019-03-12T13:15:42.447Z,48.87
2019-03-12T13:18:11.365Z,50.05
2019-03-12T13:20:40.166Z,49.02
2019-03-12T13:23:09.037Z,49.09
2019-03-12T13:25:37.833Z,48.12
2019-03-12T13:28:07.444Z,49.24
2019-03-12T13:30:36.305Z,48.80
2019-03-12T13:33:05.093Z,48.76
2019-03-12T13:35:33.965Z,48.64
2019-03-12T13:38:02.768Z,48.70
2019-03-12T13:40:32.006Z,48.89
2019-03-12T13:43:00.769Z,49.63
2019-03-12T13:45:29.608Z,49.72
2019-03-12T13:48:02.706Z,49.39
2019-03-12T13:50:30.953Z,50.11
2019-03-12T13:52:59.737Z,49.48
2019-03-12T13:55:29.527Z,48.86
2019-03-12T13:57:58.305Z,48.96
2019-03-12T14:00:29.338Z,49.27
2019-03-12T14:02:58.146Z,49.61
2019-03-12T14:05:27.915Z,49.70
2019-03-12T14:07:56.714Z,49.41
2019-03-12T14:10:25.552Z,49.74
2019-03-12T14:12:54.591Z,49.54
2019-03-12T14:15:25.790Z,50.47
2019-03-12T14:17:54.585Z,49.88
2019-03-12T14:20:37.180Z,50.25
2019-03-12T14:23:06.092Z,49.92
2019-03-12T14:25:35.120Z,50.03
2019-03-12T14:28:03.929Z,50.43
2019-03-12T14:30:32.831Z,50.10
2019-03-12T14:33:01.640Z,50.47
2019-03-12T14:35:30.445Z,50.47
2019-03-12T14:37:59.319Z,49.32
2019-03-12T14:40:28.740Z,50.05
2019-03-12T14:42:57.553Z,49.96
2019-03-12T14:45:28.080Z,49.28
2019-03-12T14:47:57.003Z,49.32
2019-03-12T14:50:25.810Z,49.59
2019-03-12T14:52:58.487Z,49.20
2019-03-12T14:55:28.451Z,49.49
2019-03-12T14:58:00.659Z,49.63
2019-03-12T15:00:32.989Z,49.26
2019-03-12T15:03:12.830Z,49.19
2019-03-12T15:05:47.568Z,49.71
2019-03-12T15:08:16.476Z,49.34
2019-03-12T15:10:45.432Z,49.60
2019-03-12T15:13:16.671Z,50.08
2019-03-12T15:15:48.216Z,49.79
2019-03-12T15:18:21.258Z,50.06
2019-03-12T15:20:50.939Z,50.21
2019-03-12T15:23:21.319Z,50.25
2019-03-12T15:29:04.130Z,50.05
2019-03-12T15:31:32.959Z,50.02
2019-03-12T15:34:01.765Z,49.89
2019-03-12T15:36:33.641Z,49.83
2019-03-12T15:39:02.406Z,50.12
2019-03-12T15:41:31.203Z,49.98
2019-03-12T15:43:59.985Z,49.45
2019-03-12T15:46:28.773Z,50.14
2019-03-12T15:48:57.682Z,50.34
2019-03-12T15:51:26.475Z,50.38
2019-03-12T15:53:55.257Z,50.44
2019-03-12T15:56:24.179Z,50.09
2019-03-12T15:58:52.992Z,49.87
2019-03-12T16:01:21.827Z,50.03
2019-03-12T16:03:50.639Z,50.12
2019-03-12T16:06:19.519Z,50.34
2019-03-12T16:08:48.340Z,50.19
2019-03-12T16:11:17.136Z,50.01
2019-03-12T16:13:45.956Z,50.47
2019-03-12T16:16:14.773Z,49.79
2019-03-12T16:18:43.747Z,50.05
2019-03-12T16:21:13.352Z,50.31
2019-03-12T16:23:43.043Z,50.37
2019-03-12T16:26:11.863Z,50.13
2019-03-12T16:28:40.690Z,50.29
2019-03-12T16:31:09.508Z,50.30
2019-03-12T16:33:38.398Z,50.93
2019-03-12T16:36:07.265Z,50.56
2019-03-12T16:38:36.061Z,50.01
2019-03-12T16:41:05.474Z,50.08
2019-03-12T16:43:34.285Z,49.81
2019-03-12T16:46:03.087Z,50.13
2019-03-12T16:48:31.973Z,50.43
2019-03-12T16:51:01.689Z,50.24
2019-03-12T16:53:30.463Z,50.17
2019-03-12T16:55:59.259Z,50.62
2019-03-12T16:58:28.074Z,50.41
2019-03-12T17:00:56.898Z,50.33
2019-03-12T17:03:25.717Z,50.90
2019-03-12T17:05:54.531Z,50.74
2019-03-12T17:08:23.315Z,50.45
2019-03-12T17:11:02.625Z,50.85
2019-03-12T17:13:28.129Z,51.04
2019-03-12T17:15:57.314Z,50.92
2019-03-12T17:18:27.250Z,50.87
2019-03-12T17:20:57.066Z,51.07
2019-03-12T17:23:25.963Z,51.28
2019-03-12T17:25:55.481Z,51.66
2019-03-12T17:28:24.346Z,51.62
2019-03-12T17:30:53.171Z,51.79
2019-03-12T17:33:21.960Z,52.44
2019-03-12T17:35:52.116Z,52.76
2019-03-12T17:38:20.884Z,52.97
2019-03-12T17:40:49.659Z,52.97
2019-03-12T17:43:18.579Z,53.13
2019-03-12T17:45:47.361Z,52.88
2019-03-12T17:48:16.146Z,53.38
2019-03-12T17:50:46.129Z,53.65
2019-03-12T17:53:14.903Z,53.58
2019-03-12T17:55:43.742Z,53.17
2019-03-12T17:58:12.569Z,53.32
2019-03-12T18:00:43.108Z,54.07
2019-03-12T18:03:11.899Z,53.63
2019-03-12T18:05:41.548Z,53.04
2019-03-12T18:08:10.368Z,53.43
2019-03-12T18:10:39.167Z,53.13
2019-03-12T18:13:07.948Z,53.64
2019-03-12T18:15:36.859Z,53.78
2019-03-12T18:18:05.879Z,53.93
2019-03-12T18:20:34.675Z,54.93
2019-03-12T18:23:03.470Z,55.84
2019-03-12T18:25:32.487Z,56.55
2019-03-12T18:28:01.362Z,57.97
2019-03-12T18:30:30.215Z,59.33
2019-03-12T18:32:59.116Z,60.56
2019-03-12T18:35:27.998Z,61.14
2019-03-12T18:37:57.430Z,61.53
2019-03-12T18:40:26.253Z,62.00
2019-03-12T18:42:55.055Z,62.00
2019-03-12T18:45:23.855Z,62.39
2019-03-12T18:47:52.783Z,62.21
2019-03-12T18:50:21.687Z,62.95
2019-03-12T18:52:50.503Z,62.76
2019-03-12T18:55:29.671Z,63.67
2019-03-12T18:57:58.459Z,63.49
2019-03-12T19:00:28.217Z,64.50
2019-03-12T19:02:57.059Z,64.77
2019-03-12T19:05:28.235Z,64.98
2019-03-12T19:07:55.183Z,65.75
2019-03-12T19:10:24.013Z,65.87
2019-03-12T19:12:52.877Z,66.36
2019-03-12T19:15:21.690Z,66.54
2019-03-12T19:17:50.570Z,67.26
2019-03-12T19:20:19.398Z,67.89
2019-03-12T19:22:48.312Z,68.09
2019-03-12T19:25:17.138Z,68.51
2019-03-12T19:27:58.829Z,69.00
2019-03-12T19:30:15.719Z,69.00
2019-03-12T19:32:49.800Z,69.19
2019-03-12T19:35:18.720Z,69.75
2019-03-12T19:37:47.520Z,70.21
2019-03-12T19:40:17.621Z,69.90
2019-03-12T19:42:46.497Z,70.25
2019-03-12T19:45:15.402Z,70.74
2019-03-12T19:47:44.272Z,71.84
2019-03-12T19:50:14.568Z,72.10
2019-03-12T19:52:43.360Z,73.04
2019-03-12T19:55:14.115Z,73.75
2019-03-12T19:57:43.006Z,74.73
2019-03-12T20:00:14.433Z,74.75
2019-03-12T20:02:43.399Z,75.79
2019-03-12T20:05:12.218Z,74.83
2019-03-12T20:07:41.683Z,75.32
2019-03-12T20:10:25.293Z,76.27
2019-03-12T20:15:13.145Z,76.12
2019-03-12T20:19:01.748Z,76.68
2019-03-12T20:21:52.397Z,77.55
2019-03-12T20:26:36.075Z,76.96
2019-03-12T20:29:50.087Z,77.37
2019-03-12T20:32:30.365Z,78.14
2019-03-12T20:35:13.267Z,77.40
2019-03-12T20:40:00.171Z,77.07
2019-03-12T20:44:42.983Z,78.57
2019-03-12T20:47:23.307Z,77.88
2019-03-12T20:50:03.850Z,79.37
2019-03-12T20:55:07.248Z,78.69
2019-03-12T20:57:46.143Z,78.67
2019-03-12T21:00:36.213Z,79.79
2019-03-12T21:03:17.949Z,79.42
2019-03-12T21:06:02.160Z,80.50
2019-03-12T21:10:44.974Z,79.88
2019-03-12T21:14:01.286Z,79.45
2019-03-12T21:16:40.193Z,79.61
2019-03-12T21:21:23.116Z,79.82
2019-03-12T21:24:03.840Z,81.10
2019-03-12T21:26:53.544Z,80.34
2019-03-12T21:29:45.634Z,79.95
2019-03-12T21:32:15.220Z,80.13
2019-03-12T21:34:44.113Z,80.30
2019-03-12T21:37:13.398Z,80.93
2019-03-12T21:39:54.494Z,81.00
2019-03-12T21:42:10.965Z,80.27
2019-03-12T21:44:39.801Z,81.52
2019-03-12T21:47:08.588Z,81.27
2019-03-12T21:49:37.369Z,81.14
2019-03-12T21:52:07.903Z,81.47
2019-03-12T21:54:36.983Z,81.51
2019-03-12T21:57:05.795Z,81.96
2019-03-12T21:59:34.589Z,81.63
2019-03-12T22:02:03.472Z,81.52
2019-03-12T22:04:32.278Z,80.87
2019-03-12T22:07:01.268Z,81.65
2019-03-12T22:09:30.018Z,81.23
2019-03-12T22:11:58.836Z,81.49
2019-03-12T22:14:27.637Z,81.23
2019-03-12T22:16:59.127Z,81.62
2019-03-12T22:19:27.956Z,81.17
2019-03-12T22:22:03.052Z,81.93
2019-03-12T22:24:31.939Z,81.08
2019-03-12T22:27:00.728Z,81.82
2019-03-12T22:29:29.520Z,81.68
2019-03-12T22:31:58.316Z,81.90
2019-03-12T22:34:30.014Z,81.38
2019-03-12T22:36:56.004Z,82.04
2019-03-12T22:39:24.793Z,81.70
2019-03-12T22:41:53.698Z,81.49
2019-03-12T22:44:22.406Z,81.98
2019-03-12T22:46:51.173Z,81.97
2019-03-12T22:49:20.032Z,81.84
2019-03-12T22:51:48.768Z,82.05
2019-03-12T22:54:17.545Z,81.68
2019-03-12T22:56:46.313Z,81.92
2019-03-12T22:59:15.108Z,81.89
2019-03-12T23:01:49.504Z,82.05
2019-03-12T23:04:23.989Z,82.51
2019-03-12T23:06:58.301Z,82.00
2019-03-12T23:09:32.847Z,82.18
2019-03-12T23:12:01.632Z,82.22
2019-03-12T23:14:30.415Z,82.22
2019-03-12T23:16:59.259Z,81.84
2019-03-12T23:19:28.049Z,82.18
2019-03-12T23:21:56.964Z,82.11
2019-03-12T23:24:25.822Z,82.00
2019-03-12T23:26:54.615Z,81.83
2019-03-12T23:29:23.387Z,82.14
2019-03-12T23:31:52.176Z,82.25
2019-03-12T23:34:20.970Z,81.83
2019-03-12T23:36:49.791Z,81.72
2019-03-12T23:39:18.667Z,81.89
2019-03-12T23:41:48.003Z,81.44
2019-03-12T23:44:16.801Z,81.44
2019-03-12T23:46:45.573Z,81.99
2019-03-12T23:49:14.355Z,81.90
2019-03-12T23:51:43.159Z,81.49
2019-03-12T23:54:11.945Z,82.27
2019-03-12T23:56:40.797Z,81.78
2019-03-12T23:59:09.612Z,82.02
